Latest Weather Observations for Mount Buller

IDV60801

Issued at 10:34 am EST Monday 24 July 2017 (issued every 30 minutes, with the page automatically refreshed every 10 minutes)

About weather observations | Map of weather stations | Latest weather observations for VIC | Other Formats
Station Details ID: 083024 Name: MOUNT BULLER Lat: -37.15 Lon: 146.44 Height: 1707.0 m
Data from the previous 72 hours. | See also: Recent months at Mount Buller
Date/Time
EST
Temp
°C
App
Temp
°C
Dew
Point
°C
Rel
Hum
%
Delta-T
°C
Wind Press
QNH
hPa
Press
MSL
hPa
Rain since
9am
mm
Dir  Spd
km/h
Gust
km/h
Spd
kts
Gust
kts
24/10:30am -0.9 -3.4 -1.0 99 0.0 NW 2 20 1 11 - - 0.2
24/10:00am -0.9 -4.2 -1.0 99 0.0 WNW 6 30 3 16 - - 0.2
24/09:30am -1.1 -7.1 -1.2 99 0.0 WNW 20 32 11 17 - - 0.2
24/09:00am -1.1 -5.7 -1.2 99 0.0 WNW 13 30 7 16 - - 19.0
24/08:30am -1.4 -8.2 -1.5 99 0.0 WNW 24 35 13 19 - - 18.8
24/08:00am -1.4 -7.4 -1.5 99 0.0 WNW 20 32 11 17 - - 18.8
24/07:30am -1.4 -7.2 -1.5 99 0.0 WNW 19 30 10 16 - - 18.8
24/07:00am -1.3 -7.3 -1.4 99 0.0 WNW 20 33 11 18 - - 18.8
24/06:30am -1.2 -7.5 -1.3 99 0.0 WNW 22 37 12 20 - - 18.8
24/06:00am -1.0 -7.3 -1.1 99 0.0 W 22 39 12 21 - - 18.8
24/05:30am -0.8 -6.5 -0.9 99 0.0 WNW 19 30 10 16 - - 18.6
24/05:00am -0.8 -7.1 -0.9 99 0.0 WNW 22 35 12 19 - - 18.2
24/04:30am -0.7 -7.4 -0.8 99 0.0 W 24 41 13 22 - - 17.6
24/04:00am -0.4 -6.3 -0.5 99 0.0 WNW 20 33 11 18 - - 17.2
24/03:30am -0.5 -7.1 -0.6 99 0.0 WNW 24 33 13 18 - - 16.6
24/03:00am -0.7 -8.5 -0.8 99 0.0 W 30 44 16 24 - - 16.0
24/02:42am -0.7 -8.1 -0.8 99 0.0 W 28 46 15 25 - - 16.0
24/02:30am -0.7 -8.1 -0.8 99 0.0 W 28 43 15 23 - - 16.0
24/02:00am -0.4 -8.5 -0.5 99 0.0 W 32 44 17 24 - - 16.0
24/01:30am -0.4 -6.6 -0.5 99 0.0 WNW 22 33 12 18 - - 15.8
24/01:21am -0.3 -7.7 -0.4 99 0.0 W 28 46 15 25 - - 15.6
24/01:00am -0.6 -9.7 -0.7 99 0.0 W 37 48 20 26 - - 15.6
24/12:37am -0.8 -9.0 -0.9 99 0.0 W 32 50 17 27 - - 15.6
24/12:30am -0.9 -8.7 -1.0 99 0.0 W 30 43 16 23 - - 15.6
24/12:00am -0.4 -6.6 -0.5 99 0.0 WSW 22 32 12 17 - - 15.6
 
Date/Time
EST
Temp
°C
App
Temp
°C
Dew
Point
°C
Rel
Hum
%
Delta-T
°C
Wind Press
QNH
hPa
Press
MSL
hPa
Rain since
9am
mm
Dir  Spd
km/h
Gust
km/h
Spd
kts
Gust
kts
23/11:30pm -0.4 -8.2 -0.5 99 0.0 W 30 43 16 23 - - 15.6
23/11:00pm -0.5 -8.8 -0.6 99 0.0 W 33 46 18 25 - - 15.4
23/10:30pm -0.7 -6.6 -0.8 99 0.0 WSW 20 33 11 18 - - 15.4
23/10:00pm -1.0 -8.5 -1.1 99 0.0 W 28 39 15 21 - - 15.4
23/09:30pm -1.0 -9.2 -1.1 99 0.0 W 32 41 17 22 - - 15.4
23/09:00pm -0.7 -8.5 -0.8 99 0.0 W 30 43 16 23 - - 15.4
23/08:30pm -0.1 -8.2 -0.2 99 0.0 W 32 44 17 24 - - 15.2
23/08:00pm 0.0 -7.3 -0.1 99 0.0 W 28 39 15 21 - - 13.8
23/07:30pm 0.0 -6.2 -0.1 99 0.0 WNW 22 35 12 19 - - 12.4
23/07:21pm 0.0 -7.7 -0.1 99 0.0 W 30 43 16 23 - - 12.0
23/07:00pm 0.0 -9.0 -0.1 99 0.0 WNW 37 63 20 34 - - 11.0
23/06:33pm 0.2 -3.9 0.1 99 0.0 WNW 11 46 6 25 - - 9.4
23/06:30pm 0.2 -3.5 0.1 99 0.0 NW 9 37 5 20 - - 9.2
23/06:00pm 0.4 -7.2 0.3 99 0.0 WNW 30 50 16 27 - - 8.0
23/05:30pm 0.6 -6.6 0.5 99 0.0 WNW 28 50 15 27 - - 7.2
23/05:28pm 0.6 -6.6 0.5 99 0.0 WNW 28 50 15 27 - - 7.2
23/05:00pm 0.0 -3.3 -0.1 99 0.0 NW 7 32 4 17 - - 6.0
23/04:30pm 0.0 -2.0 -0.1 99 0.0 CALM 0 0 0 0 - - 4.2
23/04:00pm 0.0 -4.1 -0.1 99 0.0 NNW 11 44 6 24 - - 2.8
23/03:30pm 0.0 -2.8 -0.1 99 0.0 NNW 4 32 2 17 - - 1.4
23/03:00pm 0.0 -3.1 -0.1 99 0.0 NW 6 30 3 16 - - 0.2
23/02:30pm 0.0 -3.3 -0.1 99 0.0 NNW 7 37 4 20 - - 0.0
23/02:00pm 0.0 -5.2 -0.1 99 0.0 NNW 17 35 9 19 - - 0.0
23/01:30pm 0.0 -5.2 -0.1 99 0.0 NNW 17 32 9 17 - - 0.0
23/01:00pm 0.0 -5.8 -0.1 99 0.0 NNW 20 46 11 25 - - 0.0
23/12:30pm -0.3 -5.2 -0.4 99 0.0 NNW 15 37 8 20 - - 0.0
23/12:00pm -0.1 -4.6 -0.2 99 0.0 NW 13 39 7 21 - - 0.0
23/11:30am -0.1 -5.3 -0.2 99 0.0 NNW 17 35 9 19 - - 0.0
23/11:00am -0.3 -6.9 -0.4 99 0.0 NNW 24 39 13 21 - - 0.0
23/10:33am -0.5 -7.9 -0.6 99 0.0 N 28 48 15 26 - - 0.0
23/10:30am -0.5 -7.5 -0.6 99 0.0 N 26 43 14 23 - - 0.0
23/10:15am -0.5 -7.9 -0.6 99 0.0 NNW 28 57 15 31 - - 0.0
23/10:00am -0.7 -7.4 -0.8 99 0.0 NNW 24 43 13 23 - - 0.0
23/09:35am -1.0 -9.2 -1.1 99 0.0 N 32 54 17 29 - - 0.0
23/09:30am -1.3 -9.6 -1.4 99 0.0 N 32 48 17 26 - - 0.0
23/09:02am -1.4 -10.7 -2.0 96 0.2 N 37 56 20 30 - - 0.0
23/09:00am -1.4 -11.1 -2.0 96 0.2 N 39 56 21 30 - - 0.2
23/08:30am -1.2 -10.5 -2.2 93 0.3 N 37 56 20 30 - - 0.2
23/08:00am -0.9 -9.8 -2.3 90 0.5 N 35 59 19 32 - - 0.2
23/07:42am -0.7 -9.1 -2.3 89 0.6 N 32 50 17 27 - - 0.2
23/07:30am -0.4 -8.9 -2.1 88 0.6 NNW 33 48 18 26 - - 0.2
23/07:03am -0.5 -9.8 -2.4 87 0.7 NNW 37 57 20 31 - - 0.2
23/07:00am -0.5 -9.9 -2.5 86 0.7 NNW 37 54 20 29 - - 0.2
23/06:57am 0.0 -8.5 -1.9 87 0.7 NNW 33 52 18 28 - - 0.2
23/06:30am -0.6 -9.1 -3.0 84 0.9 NNW 32 48 17 26 - - 0.2
23/06:20am -0.2 -8.8 -2.6 84 0.9 NNW 33 52 18 28 - - 0.2
23/06:00am -0.6 -9.1 -3.0 84 0.9 NNW 32 41 17 22 - - 0.2
23/05:30am -0.5 -11.7 -3.7 79 1.2 NNW 46 65 25 35 - - 0.2
23/05:00am -0.2 -12.6 -4.3 74 1.5 NNW 52 70 28 38 - - 0.0
23/04:30am -0.2 -12.6 -4.1 75 1.4 NNW 52 76 28 41 - - 0.0
23/04:00am -0.1 -13.8 -4.0 75 1.4 NNW 59 83 32 45 - - 0.0
23/03:30am 0.0 -14.1 -3.7 76 1.4 NNW 61 91 33 49 - - 0.0
23/03:00am -0.6 -13.0 -3.9 78 1.2 N 52 83 28 45 - - 0.0
23/02:30am -1.2 -13.6 -4.4 79 1.1 N 52 72 28 39 - - 0.0
23/02:00am -1.7 -12.4 -3.9 85 0.7 N 43 63 23 34 - - 0.0
23/01:30am -2.0 -12.3 -3.9 87 0.6 N 41 56 22 30 - - 0.0
23/01:02am -1.2 -11.0 -3.2 86 0.7 N 39 61 21 33 - - 0.0
23/01:00am -1.9 -11.8 -3.8 87 0.6 N 39 56 21 30 - - 0.0
23/12:30am -1.5 -11.7 -3.5 86 0.7 N 41 52 22 28 - - 0.0
23/12:00am -1.2 -11.5 -3.7 83 0.9 N 41 57 22 31 - - 0.0
 
Date/Time
EST
Temp
°C
App
Temp
°C
Dew
Point
°C
Rel
Hum
%
Delta-T
°C
Wind Press
QNH
hPa
Press
MSL
hPa
Rain since
9am
mm
Dir  Spd
km/h
Gust
km/h
Spd
kts
Gust
kts
22/11:30pm -1.3 -11.2 -4.0 82 0.9 N 39 50 21 27 - - 0.0
22/11:00pm -1.5 -10.6 -3.8 84 0.8 N 35 46 19 25 - - 0.0
22/10:30pm -0.9 -9.5 -3.9 80 1.1 N 32 41 17 22 - - 0.0
22/10:00pm -0.5 -8.7 -3.7 79 1.2 N 30 39 16 21 - - 0.0
22/09:46pm -0.3 -9.1 -4.0 76 1.3 N 33 52 18 28 - - 0.0
22/09:30pm 0.6 -8.9 -4.0 71 1.7 NNW 37 52 20 28 - - 0.0
22/09:00pm 0.0 -8.8 -4.1 74 1.5 NNW 33 46 18 25 - - 0.0
22/08:30pm -0.3 -8.1 -3.7 78 1.2 N 28 35 15 19 - - 0.0
22/08:00pm 0.2 -8.0 -3.9 74 1.5 NNW 30 37 16 20 - - 0.0
22/07:30pm 0.2 -7.6 -3.7 75 1.5 N 28 41 15 22 - - 0.0
22/07:00pm -0.1 -7.2 -4.0 75 1.4 NNW 24 32 13 17 - - 0.0
22/06:30pm 0.4 -7.4 -4.2 71 1.7 NNW 28 35 15 19 - - 0.0
22/06:00pm -0.5 -8.0 -4.4 75 1.4 NNW 26 32 14 17 - - 0.0
22/05:30pm -1.3 -9.6 -4.6 78 1.1 NNW 30 39 16 21 - - 0.0
22/05:00pm -1.1 -8.3 -5.1 74 1.4 NNW 24 30 13 16 - - 0.0
22/04:30pm -1.3 -8.5 -5.5 73 1.4 NNW 24 28 13 15 - - 0.0
22/04:00pm -2.0 -7.6 -3.3 91 0.4 N 17 22 9 12 - - 0.0
22/03:30pm -1.6 -7.8 -3.2 89 0.5 N 20 26 11 14 - - 0.0
22/03:00pm -1.3 -8.7 -4.0 82 0.9 N 26 33 14 18 - - 0.0
22/02:30pm -1.3 -8.0 -4.0 82 0.9 N 22 30 12 16 - - 0.0
22/02:00pm -0.9 -7.9 -3.3 84 0.8 NNW 24 33 13 18 - - 0.0
22/01:30pm -1.0 -7.6 -3.4 84 0.8 N 22 32 12 17 - - 0.0
22/01:00pm -1.2 -9.2 -5.4 73 1.4 NNW 28 35 15 19 - - 0.0
22/12:30pm -1.2 -9.2 -5.8 71 1.5 NNW 28 39 15 21 - - 0.0
22/12:00pm -0.4 -8.1 -6.4 64 2.0 NNW 26 37 14 20 - - 0.0
22/11:30am -0.6 -6.4 -4.6 74 1.4 N 17 22 9 12 - - 0.0
22/11:00am -1.0 -8.2 -10.1 50 2.8 NNW 22 32 12 17 - - 0.0
22/10:30am -1.8 -10.2 -10.6 51 2.6 NNW 28 37 15 20 - - 0.0
22/10:00am -1.8 -10.3 -11.3 48 2.7 NW 28 39 15 21 - - 0.0
22/09:30am -1.8 -8.9 -13.6 40 3.2 NNW 20 32 11 17 - - 0.0
22/09:00am -2.2 -10.7 -12.5 45 2.8 NNW 28 35 15 19 - - 1.8
22/08:30am -2.7 -11.1 -10.5 55 2.2 NNW 28 35 15 19 - - 1.8
22/08:00am -2.4 -11.0 -13.5 42 3.0 NNW 28 39 15 21 - - 1.8
22/07:30am -3.4 -12.2 -10.5 58 2.0 NNW 30 44 16 24 - - 1.8
22/07:00am -2.6 -12.4 -10.8 53 2.3 NNW 35 44 19 24 - - 1.8
22/06:30am -2.8 -12.1 -11.7 50 2.4 NNW 32 41 17 22 - - 1.8
22/06:00am -2.3 -11.5 -11.3 50 2.5 NNW 32 39 17 21 - - 1.8
22/05:30am -2.6 -12.0 -11.1 52 2.4 NNW 33 43 18 23 - - 1.8
22/05:00am -2.4 -11.6 -11.4 50 2.5 NNW 32 39 17 21 - - 1.8
22/04:30am -2.9 -11.2 -9.1 62 1.8 NNW 28 33 15 18 - - 1.8
22/04:00am -2.2 -11.3 -9.1 59 2.1 NNW 32 39 17 21 - - 1.8
22/03:30am -3.0 -12.0 -7.9 69 1.4 NNW 32 39 17 21 - - 1.8
22/03:00am -2.7 -12.2 -7.4 70 1.4 NNW 35 43 19 23 - - 1.8
22/02:30am -2.7 -12.2 -7.6 69 1.5 NW 35 43 19 23 - - 1.8
22/02:00am -2.7 -11.6 -7.2 71 1.4 NNW 32 41 17 22 - - 1.8
22/01:30am -3.0 -11.2 -7.3 72 1.3 NW 28 39 15 21 - - 1.8
22/01:00am -3.0 -11.9 -6.8 75 1.1 NNW 32 39 17 21 - - 1.8
22/12:30am -3.7 -11.9 -7.3 76 1.0 NNW 28 35 15 19 - - 1.8
22/12:00am -3.7 -11.2 -8.2 71 1.3 NW 24 30 13 16 - - 1.8
 
Date/Time
EST
Temp
°C
App
Temp
°C
Dew
Point
°C
Rel
Hum
%
Delta-T
°C
Wind Press
QNH
hPa
Press
MSL
hPa
Rain since
9am
mm
Dir  Spd
km/h
Gust
km/h
Spd
kts
Gust
kts
21/11:30pm -3.8 -12.2 -10.2 61 1.7 NW 28 33 15 18 - - 1.8
21/11:00pm -4.4 -11.7 -11.2 59 1.8 NW 22 28 12 15 - - 1.8
21/10:30pm -4.1 -7.2 -11.1 58 1.8 CALM 0 0 0 0 - - 1.8
21/10:00pm -4.3 -11.0 -10.5 62 1.6 NW 19 22 10 12 - - 1.8
21/09:30pm -4.5 -10.4 -10.1 65 1.5 NW 15 17 8 9 - - 1.8
21/09:00pm -4.1 -10.0 -10.1 63 1.6 NW 15 22 8 12 - - 1.8
21/08:30pm -3.5 -8.8 -12.1 51 2.3 NW 11 15 6 8 - - 1.8
21/08:00pm -3.3 -10.0 -10.8 56 2.1 NW 19 22 10 12 - - 1.8
21/07:30pm -3.7 -7.8 -8.9 67 1.4 WNW 6 26 3 14 - - 1.8
21/07:00pm -2.8 -5.7 -8.6 64 1.7 CALM 0 6 0 3 - - 1.8
21/06:30pm -1.9 -4.3 -3.5 89 0.5 CALM 0 0 0 0 - - 1.8
21/06:00pm -1.3 -3.5 -1.4 99 0.0 CALM 0 0 0 0 - - 1.8
21/05:30pm -0.5 -2.6 -0.6 99 0.0 CALM 0 0 0 0 - - 1.8
21/05:00pm -0.2 -2.2 -0.3 99 0.0 CALM 0 0 0 0 - - 1.8
21/04:30pm -0.3 -2.3 -0.4 99 0.0 CALM 0 0 0 0 - - 1.8
21/04:00pm 0.1 -1.9 0.0 99 0.0 CALM 0 0 0 0 - - 1.8
21/03:30pm 0.0 -2.0 -0.1 99 0.0 CALM 0 0 0 0 - - 1.8
21/03:00pm 0.3 -2.8 0.2 99 0.0 N 6 17 3 9 - - 1.8
21/02:30pm 0.3 -1.7 -0.1 97 0.2 CALM 0 0 0 0 - - 1.8
21/02:00pm 0.3 -1.7 -0.3 96 0.2 CALM 0 0 0 0 - - 1.8
21/01:30pm 0.3 -1.7 0.0 98 0.1 CALM 0 0 0 0 - - 1.8
21/01:00pm 0.3 -1.7 -0.1 97 0.2 CALM 0 0 0 0 - - 1.8
21/12:30pm 0.2 -2.2 -0.1 98 0.1 N 2 9 1 5 - - 1.8
21/12:00pm 0.3 -1.7 0.2 99 0.0 CALM 0 0 0 0 - - 1.8
21/11:30am -0.1 -2.2 -0.5 97 0.2 CALM 0 0 0 0 - - 1.8
21/11:00am -1.3 -3.7 -2.9 89 0.5 CALM 0 0 0 0 - - 1.4

Other Formats:

Comma delimited format used in spreadsheet applications
http://www.bom.gov.au/fwo/IDV60801/IDV60801.94894.axf

JavaScript Object Notation format (JSON) in row-major order
http://www.bom.gov.au/fwo/IDV60801/IDV60801.94894.json